sensor_id;sensor_type;location;lat;lon;timestamp;temperature;humidity
21306;DHT22;10812;51.838;5.838;2022-10-12T00:00:55;6.00;99.90
21306;DHT22;10812;51.838;5.838;2022-10-12T00:03:23;6.10;99.90
21306;DHT22;10812;51.838;5.838;2022-10-12T00:06:02;6.10;99.90
21306;DHT22;10812;51.838;5.838;2022-10-12T00:08:30;6.10;99.90
21306;DHT22;10812;51.838;5.838;2022-10-12T00:10:59;6.10;99.90
21306;DHT22;10812;51.838;5.838;2022-10-12T00:13:27;6.10;99.90
21306;DHT22;10812;51.838;5.838;2022-10-12T00:15:55;6.10;99.90
21306;DHT22;10812;51.838;5.838;2022-10-12T00:18:23;6.10;99.90
21306;DHT22;10812;51.838;5.838;2022-10-12T00:21:01;6.10;99.90
21306;DHT22;10812;51.838;5.838;2022-10-12T00:23:29;6.10;99.90
21306;DHT22;10812;51.838;5.838;2022-10-12T00:26:00;6.00;99.90
21306;DHT22;10812;51.838;5.838;2022-10-12T00:28:29;5.90;99.90
21306;DHT22;10812;51.838;5.838;2022-10-12T00:30:57;5.90;99.90
21306;DHT22;10812;51.838;5.838;2022-10-12T00:33:26;5.90;99.90
21306;DHT22;10812;51.838;5.838;2022-10-12T00:35:54;5.80;99.90
21306;DHT22;10812;51.838;5.838;2022-10-12T00:38:24;5.80;99.90
21306;DHT22;10812;51.838;5.838;2022-10-12T00:40:52;5.80;99.90
21306;DHT22;10812;51.838;5.838;2022-10-12T00:43:32;5.80;99.90
21306;DHT22;10812;51.838;5.838;2022-10-12T00:46:04;5.70;99.90
21306;DHT22;10812;51.838;5.838;2022-10-12T00:48:34;5.70;99.90
21306;DHT22;10812;51.838;5.838;2022-10-12T00:51:03;5.70;99.90
21306;DHT22;10812;51.838;5.838;2022-10-12T00:53:36;5.70;99.90
21306;DHT22;10812;51.838;5.838;2022-10-12T00:56:06;5.70;99.90
21306;DHT22;10812;51.838;5.838;2022-10-12T00:58:36;5.70;99.90
21306;DHT22;10812;51.838;5.838;2022-10-12T01:01:05;5.70;99.90
21306;DHT22;10812;51.838;5.838;2022-10-12T01:03:34;5.70;99.90
21306;DHT22;10812;51.838;5.838;2022-10-12T01:06:03;5.80;99.90
21306;DHT22;10812;51.838;5.838;2022-10-12T01:08:34;5.80;99.90
21306;DHT22;10812;51.838;5.838;2022-10-12T01:11:03;5.80;99.90
21306;DHT22;10812;51.838;5.838;2022-10-12T01:13:31;5.80;99.90
21306;DHT22;10812;51.838;5.838;2022-10-12T01:16:04;5.80;99.90
21306;DHT22;10812;51.838;5.838;2022-10-12T01:18:41;5.80;99.90
21306;DHT22;10812;51.838;5.838;2022-10-12T01:21:16;5.80;99.90
21306;DHT22;10812;51.838;5.838;2022-10-12T01:24:13;5.80;99.90
21306;DHT22;10812;51.838;5.838;2022-10-12T01:27:06;5.80;99.90
21306;DHT22;10812;51.838;5.838;2022-10-12T01:35:34;5.80;99.90
21306;DHT22;10812;51.838;5.838;2022-10-12T01:38:11;5.90;99.90
21306;DHT22;10812;51.838;5.838;2022-10-12T01:40:49;5.90;99.90
21306;DHT22;10812;51.838;5.838;2022-10-12T01:43:19;5.90;99.90
21306;DHT22;10812;51.838;5.838;2022-10-12T01:45:50;5.90;99.90
21306;DHT22;10812;51.838;5.838;2022-10-12T01:48:18;5.90;99.90
21306;DHT22;10812;51.838;5.838;2022-10-12T01:50:49;5.90;99.90
21306;DHT22;10812;51.838;5.838;2022-10-12T01:53:26;5.90;99.90
21306;DHT22;10812;51.838;5.838;2022-10-12T01:55:59;6.00;99.90
21306;DHT22;10812;51.838;5.838;2022-10-12T01:58:41;6.00;99.90
21306;DHT22;10812;51.838;5.838;2022-10-12T02:01:19;5.90;99.90
21306;DHT22;10812;51.838;5.838;2022-10-12T02:03:52;5.90;99.90
21306;DHT22;10812;51.838;5.838;2022-10-12T02:06:29;5.90;99.90
21306;DHT22;10812;51.838;5.838;2022-10-12T02:09:02;5.90;99.90
21306;DHT22;10812;51.838;5.838;2022-10-12T02:11:34;5.80;99.90
21306;DHT22;10812;51.838;5.838;2022-10-12T02:14:08;5.80;99.90
21306;DHT22;10812;51.838;5.838;2022-10-12T02:16:46;5.80;99.90
21306;DHT22;10812;51.838;5.838;2022-10-12T02:19:19;5.80;99.90
21306;DHT22;10812;51.838;5.838;2022-10-12T02:21:50;5.80;99.90
21306;DHT22;10812;51.838;5.838;2022-10-12T02:24:21;5.90;99.90
21306;DHT22;10812;51.838;5.838;2022-10-12T02:26:52;5.90;99.90
21306;DHT22;10812;51.838;5.838;2022-10-12T02:29:23;6.00;99.90
21306;DHT22;10812;51.838;5.838;2022-10-12T02:31:57;6.00;99.90
21306;DHT22;10812;51.838;5.838;2022-10-12T02:34:30;5.90;99.90
21306;DHT22;10812;51.838;5.838;2022-10-12T02:37:05;5.90;99.90
21306;DHT22;10812;51.838;5.838;2022-10-12T02:39:39;5.80;99.90
21306;DHT22;10812;51.838;5.838;2022-10-12T02:42:12;5.70;99.90
21306;DHT22;10812;51.838;5.838;2022-10-12T02:44:43;5.60;99.90
21306;DHT22;10812;51.838;5.838;2022-10-12T02:47:14;5.60;99.90
21306;DHT22;10812;51.838;5.838;2022-10-12T02:49:43;5.50;99.90
21306;DHT22;10812;51.838;5.838;2022-10-12T02:52:12;5.50;99.90
21306;DHT22;10812;51.838;5.838;2022-10-12T02:54:40;5.40;99.90
21306;DHT22;10812;51.838;5.838;2022-10-12T02:57:08;5.40;99.90
21306;DHT22;10812;51.838;5.838;2022-10-12T02:59:36;5.40;99.90
21306;DHT22;10812;51.838;5.838;2022-10-12T03:07:26;5.40;99.90
21306;DHT22;10812;51.838;5.838;2022-10-12T03:09:54;5.30;99.90
21306;DHT22;10812;51.838;5.838;2022-10-12T03:12:23;5.30;99.90
21306;DHT22;10812;51.838;5.838;2022-10-12T03:14:51;5.30;99.90
21306;DHT22;10812;51.838;5.838;2022-10-12T03:17:19;5.30;99.90
21306;DHT22;10812;51.838;5.838;2022-10-12T03:19:47;5.40;99.90
21306;DHT22;10812;51.838;5.838;2022-10-12T03:22:15;5.30;99.90
21306;DHT22;10812;51.838;5.838;2022-10-12T03:24:44;5.20;99.90
21306;DHT22;10812;51.838;5.838;2022-10-12T03:27:12;5.20;99.90
21306;DHT22;10812;51.838;5.838;2022-10-12T03:29:40;5.20;99.90
21306;DHT22;10812;51.838;5.838;2022-10-12T03:32:08;5.10;99.90
21306;DHT22;10812;51.838;5.838;2022-10-12T03:34:36;5.20;99.90
21306;DHT22;10812;51.838;5.838;2022-10-12T03:37:04;5.20;99.90
21306;DHT22;10812;51.838;5.838;2022-10-12T03:39:32;5.20;99.90
21306;DHT22;10812;51.838;5.838;2022-10-12T03:42:02;5.20;99.90
21306;DHT22;10812;51.838;5.838;2022-10-12T03:44:30;5.20;99.90
21306;DHT22;10812;51.838;5.838;2022-10-12T03:46:58;5.10;99.90
21306;DHT22;10812;51.838;5.838;2022-10-12T03:49:26;5.10;99.90
21306;DHT22;10812;51.838;5.838;2022-10-12T03:51:54;5.00;99.90
21306;DHT22;10812;51.838;5.838;2022-10-12T03:54:22;4.90;99.90
21306;DHT22;10812;51.838;5.838;2022-10-12T03:56:50;5.00;99.90
21306;DHT22;10812;51.838;5.838;2022-10-12T03:59:20;4.90;99.90
21306;DHT22;10812;51.838;5.838;2022-10-12T04:01:48;4.90;99.90
21306;DHT22;10812;51.838;5.838;2022-10-12T04:04:16;4.80;99.90
21306;DHT22;10812;51.838;5.838;2022-10-12T04:11:06;4.80;99.90
21306;DHT22;10812;51.838;5.838;2022-10-12T04:13:34;4.80;99.90
21306;DHT22;10812;51.838;5.838;2022-10-12T04:16:05;4.70;99.90
21306;DHT22;10812;51.838;5.838;2022-10-12T04:18:33;4.70;99.90
21306;DHT22;10812;51.838;5.838;2022-10-12T04:21:02;4.60;99.90
21306;DHT22;10812;51.838;5.838;2022-10-12T04:23:33;4.60;99.90
21306;DHT22;10812;51.838;5.838;2022-10-12T04:26:01;4.60;99.90
21306;DHT22;10812;51.838;5.838;2022-10-12T04:28:29;4.60;99.90
21306;DHT22;10812;51.838;5.838;2022-10-12T04:30:57;4.60;99.90
21306;DHT22;10812;51.838;5.838;2022-10-12T04:33:26;4.50;99.90
21306;DHT22;10812;51.838;5.838;2022-10-12T04:35:54;4.50;99.90
21306;DHT22;10812;51.838;5.838;2022-10-12T04:38:22;4.40;99.90
21306;DHT22;10812;51.838;5.838;2022-10-12T04:40:50;4.40;99.90
21306;DHT22;10812;51.838;5.838;2022-10-12T04:54:42;4.20;99.90
21306;DHT22;10812;51.838;5.838;2022-10-12T04:57:10;4.30;99.90
21306;DHT22;10812;51.838;5.838;2022-10-12T04:59:39;4.30;99.90
21306;DHT22;10812;51.838;5.838;2022-10-12T05:02:07;4.20;99.90
21306;DHT22;10812;51.838;5.838;2022-10-12T05:04:35;4.20;99.90
21306;DHT22;10812;51.838;5.838;2022-10-12T05:07:03;4.20;99.90
21306;DHT22;10812;51.838;5.838;2022-10-12T05:09:31;4.10;99.90
21306;DHT22;10812;51.838;5.838;2022-10-12T05:12:01;4.10;99.90
21306;DHT22;10812;51.838;5.838;2022-10-12T05:14:29;4.10;99.90
21306;DHT22;10812;51.838;5.838;2022-10-12T05:17:01;4.00;99.90
21306;DHT22;10812;51.838;5.838;2022-10-12T05:19:30;4.00;99.90
21306;DHT22;10812;51.838;5.838;2022-10-12T05:21:58;4.00;99.90
21306;DHT22;10812;51.838;5.838;2022-10-12T05:24:26;4.10;99.90
21306;DHT22;10812;51.838;5.838;2022-10-12T05:26:54;4.10;99.90
21306;DHT22;10812;51.838;5.838;2022-10-12T05:29:24;4.10;99.90
21306;DHT22;10812;51.838;5.838;2022-10-12T05:31:52;4.20;99.90
21306;DHT22;10812;51.838;5.838;2022-10-12T05:34:20;4.10;99.90
21306;DHT22;10812;51.838;5.838;2022-10-12T05:36:48;4.00;99.90
21306;DHT22;10812;51.838;5.838;2022-10-12T05:39:16;4.00;99.90
21306;DHT22;10812;51.838;5.838;2022-10-12T05:41:44;4.00;99.90
21306;DHT22;10812;51.838;5.838;2022-10-12T05:55:52;4.20;99.90
21306;DHT22;10812;51.838;5.838;2022-10-12T05:58:20;4.20;99.90
21306;DHT22;10812;51.838;5.838;2022-10-12T06:00:49;4.10;99.90
21306;DHT22;10812;51.838;5.838;2022-10-12T06:03:17;4.20;99.90
21306;DHT22;10812;51.838;5.838;2022-10-12T06:05:51;4.20;99.90
21306;DHT22;10812;51.838;5.838;2022-10-12T06:08:19;4.20;99.90
21306;DHT22;10812;51.838;5.838;2022-10-12T06:10:49;4.30;99.90
21306;DHT22;10812;51.838;5.838;2022-10-12T06:13:19;4.40;99.90
21306;DHT22;10812;51.838;5.838;2022-10-12T06:15:48;4.60;99.90
21306;DHT22;10812;51.838;5.838;2022-10-12T06:18:17;4.70;99.90
21306;DHT22;10812;51.838;5.838;2022-10-12T06:20:46;4.80;99.90
21306;DHT22;10812;51.838;5.838;2022-10-12T06:23:14;5.00;99.90
21306;DHT22;10812;51.838;5.838;2022-10-12T06:25:44;5.20;99.90
21306;DHT22;10812;51.838;5.838;2022-10-12T06:28:12;5.40;99.90
21306;DHT22;10812;51.838;5.838;2022-10-12T06:30:42;5.70;99.90
21306;DHT22;10812;51.838;5.838;2022-10-12T06:33:10;5.90;99.90
21306;DHT22;10812;51.838;5.838;2022-10-12T06:35:39;6.00;99.90
21306;DHT22;10812;51.838;5.838;2022-10-12T06:38:07;6.10;99.90
21306;DHT22;10812;51.838;5.838;2022-10-12T06:40:35;6.30;99.90
21306;DHT22;10812;51.838;5.838;2022-10-12T06:43:03;6.40;99.90
21306;DHT22;10812;51.838;5.838;2022-10-12T06:45:31;6.50;99.90
21306;DHT22;10812;51.838;5.838;2022-10-12T06:48:02;6.50;99.90
21306;DHT22;10812;51.838;5.838;2022-10-12T06:50:30;6.60;99.90
21306;DHT22;10812;51.838;5.838;2022-10-12T06:52:58;6.60;99.90
21306;DHT22;10812;51.838;5.838;2022-10-12T06:55:26;6.70;99.90
21306;DHT22;10812;51.838;5.838;2022-10-12T06:57:57;6.90;99.90
21306;DHT22;10812;51.838;5.838;2022-10-12T07:00:25;7.30;99.90
21306;DHT22;10812;51.838;5.838;2022-10-12T07:02:53;7.40;99.90
21306;DHT22;10812;51.838;5.838;2022-10-12T07:05:23;7.50;99.90
21306;DHT22;10812;51.838;5.838;2022-10-12T07:07:51;7.40;99.90
21306;DHT22;10812;51.838;5.838;2022-10-12T07:10:19;7.50;99.90
21306;DHT22;10812;51.838;5.838;2022-10-12T07:12:47;7.60;99.90
21306;DHT22;10812;51.838;5.838;2022-10-12T07:15:16;7.60;99.90
21306;DHT22;10812;51.838;5.838;2022-10-12T07:17:44;7.70;99.90
21306;DHT22;10812;51.838;5.838;2022-10-12T07:20:12;7.80;99.90
21306;DHT22;10812;51.838;5.838;2022-10-12T07:22:41;7.90;99.90
21306;DHT22;10812;51.838;5.838;2022-10-12T07:25:10;8.30;99.90
21306;DHT22;10812;51.838;5.838;2022-10-12T07:27:38;8.70;99.90
21306;DHT22;10812;51.838;5.838;2022-10-12T07:30:08;8.80;99.90
21306;DHT22;10812;51.838;5.838;2022-10-12T07:32:36;8.90;99.90
21306;DHT22;10812;51.838;5.838;2022-10-12T07:35:05;9.40;99.90
21306;DHT22;10812;51.838;5.838;2022-10-12T07:37:33;10.30;99.90
21306;DHT22;10812;51.838;5.838;2022-10-12T07:40:03;11.00;99.90
21306;DHT22;10812;51.838;5.838;2022-10-12T07:42:31;11.20;99.90
21306;DHT22;10812;51.838;5.838;2022-10-12T07:44:59;11.10;99.90
21306;DHT22;10812;51.838;5.838;2022-10-12T07:47:27;10.90;99.90
21306;DHT22;10812;51.838;5.838;2022-10-12T07:49:55;10.40;99.90
21306;DHT22;10812;51.838;5.838;2022-10-12T07:52:23;10.20;99.90
21306;DHT22;10812;51.838;5.838;2022-10-12T07:54:53;10.10;99.90
21306;DHT22;10812;51.838;5.838;2022-10-12T07:57:22;10.20;99.90
21306;DHT22;10812;51.838;5.838;2022-10-12T07:59:50;10.30;99.90
21306;DHT22;10812;51.838;5.838;2022-10-12T08:02:18;10.40;99.90
21306;DHT22;10812;51.838;5.838;2022-10-12T08:04:47;10.10;99.90
21306;DHT22;10812;51.838;5.838;2022-10-12T08:07:15;10.10;99.90
21306;DHT22;10812;51.838;5.838;2022-10-12T08:09:43;10.30;99.90
21306;DHT22;10812;51.838;5.838;2022-10-12T08:12:11;10.80;99.90
21306;DHT22;10812;51.838;5.838;2022-10-12T08:14:41;11.60;99.90
21306;DHT22;10812;51.838;5.838;2022-10-12T08:17:09;12.30;99.90
21306;DHT22;10812;51.838;5.838;2022-10-12T08:19:37;12.70;99.90
21306;DHT22;10812;51.838;5.838;2022-10-12T08:22:05;12.90;99.90
21306;DHT22;10812;51.838;5.838;2022-10-12T08:24:34;13.70;99.90
21306;DHT22;10812;51.838;5.838;2022-10-12T08:27:02;14.60;99.90
21306;DHT22;10812;51.838;5.838;2022-10-12T08:29:30;14.80;99.90
21306;DHT22;10812;51.838;5.838;2022-10-12T08:32:00;14.30;99.90
21306;DHT22;10812;51.838;5.838;2022-10-12T08:34:28;14.30;99.90
21306;DHT22;10812;51.838;5.838;2022-10-12T08:36:57;14.40;99.90
21306;DHT22;10812;51.838;5.838;2022-10-12T08:39:25;14.40;99.90
21306;DHT22;10812;51.838;5.838;2022-10-12T08:42:03;13.90;99.90
21306;DHT22;10812;51.838;5.838;2022-10-12T08:44:50;13.60;99.90
21306;DHT22;10812;51.838;5.838;2022-10-12T08:47:24;13.90;99.90
21306;DHT22;10812;51.838;5.838;2022-10-12T08:49:56;15.30;99.90
21306;DHT22;10812;51.838;5.838;2022-10-12T08:52:29;16.50;99.90
21306;DHT22;10812;51.838;5.838;2022-10-12T08:55:02;16.70;99.90
21306;DHT22;10812;51.838;5.838;2022-10-12T08:57:32;16.20;99.90
21306;DHT22;10812;51.838;5.838;2022-10-12T09:00:01;16.10;99.90
21306;DHT22;10812;51.838;5.838;2022-10-12T09:02:43;16.70;99.90
21306;DHT22;10812;51.838;5.838;2022-10-12T09:05:16;17.10;99.90
21306;DHT22;10812;51.838;5.838;2022-10-12T09:07:50;18.00;99.90
21306;DHT22;10812;51.838;5.838;2022-10-12T09:10:29;18.00;99.90
21306;DHT22;10812;51.838;5.838;2022-10-12T09:13:03;18.60;99.90
21306;DHT22;10812;51.838;5.838;2022-10-12T09:15:38;19.00;99.90
21306;DHT22;10812;51.838;5.838;2022-10-12T09:18:16;19.10;99.90
21306;DHT22;10812;51.838;5.838;2022-10-12T09:20:46;18.30;99.90
21306;DHT22;10812;51.838;5.838;2022-10-12T09:23:23;18.10;99.90
21306;DHT22;10812;51.838;5.838;2022-10-12T09:25:56;18.20;99.90
21306;DHT22;10812;51.838;5.838;2022-10-12T09:28:30;17.80;99.90
21306;DHT22;10812;51.838;5.838;2022-10-12T09:31:15;17.40;99.90
21306;DHT22;10812;51.838;5.838;2022-10-12T09:33:52;18.10;99.90
21306;DHT22;10812;51.838;5.838;2022-10-12T09:36:22;18.30;99.90
21306;DHT22;10812;51.838;5.838;2022-10-12T09:38:50;18.20;99.90
21306;DHT22;10812;51.838;5.838;2022-10-12T09:41:21;18.10;99.90
21306;DHT22;10812;51.838;5.838;2022-10-12T09:43:52;17.80;99.90
21306;DHT22;10812;51.838;5.838;2022-10-12T09:46:27;17.50;99.90
21306;DHT22;10812;51.838;5.838;2022-10-12T09:48:58;17.00;99.90
21306;DHT22;10812;51.838;5.838;2022-10-12T09:51:27;16.20;99.90
21306;DHT22;10812;51.838;5.838;2022-10-12T09:53:57;15.40;99.90
21306;DHT22;10812;51.838;5.838;2022-10-12T09:56:35;14.80;99.90
21306;DHT22;10812;51.838;5.838;2022-10-12T09:59:22;14.50;99.90
21306;DHT22;10812;51.838;5.838;2022-10-12T10:01:58;14.30;99.90
21306;DHT22;10812;51.838;5.838;2022-10-12T10:04:32;14.00;99.90
21306;DHT22;10812;51.838;5.838;2022-10-12T10:07:13;14.00;99.90
21306;DHT22;10812;51.838;5.838;2022-10-12T10:09:46;13.80;99.90
21306;DHT22;10812;51.838;5.838;2022-10-12T10:12:21;13.80;99.90
21306;DHT22;10812;51.838;5.838;2022-10-12T10:14:52;13.70;99.90
21306;DHT22;10812;51.838;5.838;2022-10-12T10:17:24;13.70;99.90
21306;DHT22;10812;51.838;5.838;2022-10-12T10:19:55;13.70;99.90
21306;DHT22;10812;51.838;5.838;2022-10-12T10:22:24;13.70;99.90
21306;DHT22;10812;51.838;5.838;2022-10-12T10:24:54;13.70;99.90
21306;DHT22;10812;51.838;5.838;2022-10-12T10:27:32;13.70;99.90
21306;DHT22;10812;51.838;5.838;2022-10-12T10:30:20;13.70;99.90
21306;DHT22;10812;51.838;5.838;2022-10-12T10:33:11;13.70;99.90
21306;DHT22;10812;51.838;5.838;2022-10-12T10:35:53;13.70;99.90
21306;DHT22;10812;51.838;5.838;2022-10-12T10:38:21;13.60;99.90
21306;DHT22;10812;51.838;5.838;2022-10-12T10:40:51;13.60;99.90
21306;DHT22;10812;51.838;5.838;2022-10-12T10:43:23;13.70;99.90
21306;DHT22;10812;51.838;5.838;2022-10-12T10:45:54;13.90;99.90
21306;DHT22;10812;51.838;5.838;2022-10-12T10:48:26;13.90;99.90
21306;DHT22;10812;51.838;5.838;2022-10-12T10:50:58;14.10;99.90
21306;DHT22;10812;51.838;5.838;2022-10-12T10:53:30;14.30;99.90
21306;DHT22;10812;51.838;5.838;2022-10-12T10:56:02;14.40;99.90
21306;DHT22;10812;51.838;5.838;2022-10-12T10:58:34;14.60;99.90
21306;DHT22;10812;51.838;5.838;2022-10-12T11:01:18;14.70;99.90
21306;DHT22;10812;51.838;5.838;2022-10-12T11:03:54;14.90;99.90
21306;DHT22;10812;51.838;5.838;2022-10-12T11:06:34;15.10;99.90
21306;DHT22;10812;51.838;5.838;2022-10-12T11:09:08;15.30;99.90
21306;DHT22;10812;51.838;5.838;2022-10-12T11:11:39;15.40;99.90
21306;DHT22;10812;51.838;5.838;2022-10-12T11:14:14;15.40;99.90
21306;DHT22;10812;51.838;5.838;2022-10-12T11:16:46;15.30;99.90
21306;DHT22;10812;51.838;5.838;2022-10-12T11:19:25;15.30;99.90
21306;DHT22;10812;51.838;5.838;2022-10-12T11:21:59;15.30;99.90
21306;DHT22;10812;51.838;5.838;2022-10-12T11:24:33;15.30;99.90
21306;DHT22;10812;51.838;5.838;2022-10-12T11:27:05;15.40;99.90
21306;DHT22;10812;51.838;5.838;2022-10-12T11:29:36;15.30;99.90
21306;DHT22;10812;51.838;5.838;2022-10-12T11:32:09;15.30;99.90
21306;DHT22;10812;51.838;5.838;2022-10-12T11:34:47;15.00;99.90
21306;DHT22;10812;51.838;5.838;2022-10-12T11:37:19;14.90;99.90
21306;DHT22;10812;51.838;5.838;2022-10-12T11:39:51;14.90;99.90
21306;DHT22;10812;51.838;5.838;2022-10-12T11:42:26;15.00;99.90
21306;DHT22;10812;51.838;5.838;2022-10-12T11:44:56;14.90;99.90
21306;DHT22;10812;51.838;5.838;2022-10-12T11:47:33;14.70;99.90
21306;DHT22;10812;51.838;5.838;2022-10-12T11:50:05;14.60;99.90
21306;DHT22;10812;51.838;5.838;2022-10-12T11:52:38;14.50;99.90
21306;DHT22;10812;51.838;5.838;2022-10-12T11:55:26;14.50;99.90
21306;DHT22;10812;51.838;5.838;2022-10-12T11:57:59;14.60;99.90
21306;DHT22;10812;51.838;5.838;2022-10-12T12:00:33;14.40;99.90
21306;DHT22;10812;51.838;5.838;2022-10-12T12:03:13;14.40;99.90
21306;DHT22;10812;51.838;5.838;2022-10-12T12:05:43;14.50;99.90
21306;DHT22;10812;51.838;5.838;2022-10-12T12:08:21;14.70;99.90
21306;DHT22;10812;51.838;5.838;2022-10-12T12:10:53;14.90;99.90
21306;DHT22;10812;51.838;5.838;2022-10-12T12:13:29;15.10;99.90
21306;DHT22;10812;51.838;5.838;2022-10-12T12:16:31;15.30;99.90
21306;DHT22;10812;51.838;5.838;2022-10-12T12:19:13;15.40;99.90
21306;DHT22;10812;51.838;5.838;2022-10-12T12:22:11;15.40;99.90
21306;DHT22;10812;51.838;5.838;2022-10-12T12:24:50;15.40;99.90
21306;DHT22;10812;51.838;5.838;2022-10-12T12:27:21;15.40;99.90
21306;DHT22;10812;51.838;5.838;2022-10-12T12:29:50;15.40;99.90
21306;DHT22;10812;51.838;5.838;2022-10-12T12:32:19;15.30;99.90
21306;DHT22;10812;51.838;5.838;2022-10-12T12:34:52;15.20;99.90
21306;DHT22;10812;51.838;5.838;2022-10-12T12:37:27;15.10;99.90
21306;DHT22;10812;51.838;5.838;2022-10-12T12:39:59;15.10;99.90
21306;DHT22;10812;51.838;5.838;2022-10-12T12:42:28;15.00;99.90
21306;DHT22;10812;51.838;5.838;2022-10-12T12:48:07;15.00;99.90
21306;DHT22;10812;51.838;5.838;2022-10-12T12:50:37;15.10;99.90
21306;DHT22;10812;51.838;5.838;2022-10-12T12:53:13;15.20;99.90
21306;DHT22;10812;51.838;5.838;2022-10-12T12:56:01;15.30;99.90
21306;DHT22;10812;51.838;5.838;2022-10-12T12:58:50;15.40;99.90
21306;DHT22;10812;51.838;5.838;2022-10-12T13:01:46;15.50;99.90
21306;DHT22;10812;51.838;5.838;2022-10-12T13:04:32;15.60;99.90
21306;DHT22;10812;51.838;5.838;2022-10-12T13:07:27;15.70;99.90
21306;DHT22;10812;51.838;5.838;2022-10-12T13:10:07;15.80;99.90
21306;DHT22;10812;51.838;5.838;2022-10-12T13:15:42;15.80;99.90
21306;DHT22;10812;51.838;5.838;2022-10-12T13:18:35;15.80;99.90
21306;DHT22;10812;51.838;5.838;2022-10-12T13:21:17;15.70;99.90
21306;DHT22;10812;51.838;5.838;2022-10-12T13:23:48;15.90;99.90
21306;DHT22;10812;51.838;5.838;2022-10-12T13:26:21;16.00;99.90
21306;DHT22;10812;51.838;5.838;2022-10-12T13:28:53;16.00;99.90
21306;DHT22;10812;51.838;5.838;2022-10-12T13:31:25;16.00;99.90
21306;DHT22;10812;51.838;5.838;2022-10-12T13:34:04;16.10;99.90
21306;DHT22;10812;51.838;5.838;2022-10-12T13:36:35;16.00;99.90
21306;DHT22;10812;51.838;5.838;2022-10-12T13:39:15;16.00;99.90
21306;DHT22;10812;51.838;5.838;2022-10-12T13:41:44;16.00;99.90
21306;DHT22;10812;51.838;5.838;2022-10-12T13:44:25;15.90;99.90
21306;DHT22;10812;51.838;5.838;2022-10-12T13:46:55;15.90;99.90
21306;DHT22;10812;51.838;5.838;2022-10-12T13:49:26;15.90;99.90
21306;DHT22;10812;51.838;5.838;2022-10-12T13:51:57;15.90;99.90
21306;DHT22;10812;51.838;5.838;2022-10-12T13:54:32;15.90;99.90
21306;DHT22;10812;51.838;5.838;2022-10-12T13:57:03;16.00;99.90
21306;DHT22;10812;51.838;5.838;2022-10-12T13:59:36;15.90;99.90
21306;DHT22;10812;51.838;5.838;2022-10-12T14:02:17;16.00;99.90
21306;DHT22;10812;51.838;5.838;2022-10-12T14:04:45;15.90;99.90
21306;DHT22;10812;51.838;5.838;2022-10-12T14:07:18;15.90;99.90
21306;DHT22;10812;51.838;5.838;2022-10-12T14:09:52;16.00;99.90
21306;DHT22;10812;51.838;5.838;2022-10-12T14:12:22;16.00;99.90
21306;DHT22;10812;51.838;5.838;2022-10-12T14:14:53;15.90;99.90
21306;DHT22;10812;51.838;5.838;2022-10-12T14:17:21;16.00;99.90
21306;DHT22;10812;51.838;5.838;2022-10-12T14:19:51;16.10;99.90
21306;DHT22;10812;51.838;5.838;2022-10-12T14:22:22;16.10;99.90
21306;DHT22;10812;51.838;5.838;2022-10-12T14:24:55;16.10;99.90
21306;DHT22;10812;51.838;5.838;2022-10-12T14:27:37;16.10;99.90
21306;DHT22;10812;51.838;5.838;2022-10-12T14:30:16;16.00;99.90
21306;DHT22;10812;51.838;5.838;2022-10-12T14:32:45;15.90;99.90
21306;DHT22;10812;51.838;5.838;2022-10-12T14:35:23;15.80;99.90
21306;DHT22;10812;51.838;5.838;2022-10-12T14:37:54;15.80;99.90
21306;DHT22;10812;51.838;5.838;2022-10-12T14:40:33;15.70;99.90
21306;DHT22;10812;51.838;5.838;2022-10-12T14:43:04;15.70;99.90
21306;DHT22;10812;51.838;5.838;2022-10-12T14:45:35;15.70;99.90
21306;DHT22;10812;51.838;5.838;2022-10-12T14:48:04;15.70;99.90
21306;DHT22;10812;51.838;5.838;2022-10-12T14:50:35;15.80;99.90
21306;DHT22;10812;51.838;5.838;2022-10-12T15:04:38;15.80;99.90
21306;DHT22;10812;51.838;5.838;2022-10-12T15:07:12;15.80;99.90
21306;DHT22;10812;51.838;5.838;2022-10-12T15:09:41;15.70;99.90
21306;DHT22;10812;51.838;5.838;2022-10-12T15:12:12;15.60;99.90
21306;DHT22;10812;51.838;5.838;2022-10-12T15:14:41;15.70;99.90
21306;DHT22;10812;51.838;5.838;2022-10-12T15:17:10;15.70;99.90
21306;DHT22;10812;51.838;5.838;2022-10-12T15:19:42;15.50;99.90
21306;DHT22;10812;51.838;5.838;2022-10-12T15:22:14;15.50;99.90
21306;DHT22;10812;51.838;5.838;2022-10-12T15:24:42;15.30;99.90
21306;DHT22;10812;51.838;5.838;2022-10-12T15:27:11;15.30;99.90
21306;DHT22;10812;51.838;5.838;2022-10-12T15:29:39;15.10;99.90
21306;DHT22;10812;51.838;5.838;2022-10-12T15:32:09;15.10;99.90
21306;DHT22;10812;51.838;5.838;2022-10-12T15:34:42;14.90;99.90
21306;DHT22;10812;51.838;5.838;2022-10-12T15:37:10;14.80;99.90
21306;DHT22;10812;51.838;5.838;2022-10-12T15:39:39;14.80;99.90
21306;DHT22;10812;51.838;5.838;2022-10-12T15:42:09;14.80;99.90
21306;DHT22;10812;51.838;5.838;2022-10-12T15:56:13;14.70;99.90
21306;DHT22;10812;51.838;5.838;2022-10-12T15:58:42;14.70;99.90
21306;DHT22;10812;51.838;5.838;2022-10-12T16:01:11;14.70;99.90
21306;DHT22;10812;51.838;5.838;2022-10-12T16:03:39;14.60;99.90
21306;DHT22;10812;51.838;5.838;2022-10-12T16:06:08;14.60;99.90
21306;DHT22;10812;51.838;5.838;2022-10-12T16:08:36;14.60;99.90
21306;DHT22;10812;51.838;5.838;2022-10-12T16:11:06;14.60;99.90
21306;DHT22;10812;51.838;5.838;2022-10-12T16:13:35;14.50;99.90
21306;DHT22;10812;51.838;5.838;2022-10-12T16:16:12;14.50;99.90
21306;DHT22;10812;51.838;5.838;2022-10-12T16:18:40;14.40;99.90
21306;DHT22;10812;51.838;5.838;2022-10-12T16:21:08;14.30;99.90
21306;DHT22;10812;51.838;5.838;2022-10-12T16:23:38;14.30;99.90
21306;DHT22;10812;51.838;5.838;2022-10-12T16:26:08;14.10;99.90
21306;DHT22;10812;51.838;5.838;2022-10-12T16:28:38;14.00;99.90
21306;DHT22;10812;51.838;5.838;2022-10-12T16:31:10;13.90;99.90
21306;DHT22;10812;51.838;5.838;2022-10-12T16:33:39;13.80;99.90
21306;DHT22;10812;51.838;5.838;2022-10-12T16:47:41;13.50;99.90
21306;DHT22;10812;51.838;5.838;2022-10-12T16:50:09;13.30;99.90
21306;DHT22;10812;51.838;5.838;2022-10-12T16:52:38;13.30;99.90
21306;DHT22;10812;51.838;5.838;2022-10-12T16:55:06;13.20;99.90
21306;DHT22;10812;51.838;5.838;2022-10-12T16:57:36;13.20;99.90
21306;DHT22;10812;51.838;5.838;2022-10-12T17:00:05;13.20;99.90
21306;DHT22;10812;51.838;5.838;2022-10-12T17:02:34;13.20;99.90
21306;DHT22;10812;51.838;5.838;2022-10-12T17:05:04;13.20;99.90
21306;DHT22;10812;51.838;5.838;2022-10-12T17:07:32;13.20;99.90
21306;DHT22;10812;51.838;5.838;2022-10-12T17:10:00;13.10;99.90
21306;DHT22;10812;51.838;5.838;2022-10-12T17:12:29;13.10;99.90
21306;DHT22;10812;51.838;5.838;2022-10-12T17:14:57;13.00;99.90
21306;DHT22;10812;51.838;5.838;2022-10-12T17:17:25;13.00;99.90
21306;DHT22;10812;51.838;5.838;2022-10-12T17:19:53;13.00;99.90
21306;DHT22;10812;51.838;5.838;2022-10-12T17:22:26;13.00;99.90
21306;DHT22;10812;51.838;5.838;2022-10-12T17:24:54;13.00;99.90